createdAt,value
2022-10-18T00:01:05.668Z,16.34
2022-10-18T00:03:33.809Z,16.15
2022-10-18T00:06:01.485Z,15.58
2022-10-18T00:08:28.950Z,16.15
2022-10-18T00:10:55.688Z,15.77
2022-10-18T00:13:23.368Z,17.67
2022-10-18T00:15:53.285Z,17.48
2022-10-18T00:18:21.013Z,16.72
2022-10-18T00:21:07.636Z,16.34
2022-10-18T00:23:35.556Z,17.29
2022-10-18T00:26:32.119Z,17.86
2022-10-18T00:29:02.544Z,21.47
2022-10-18T00:31:34.226Z,20.33
2022-10-18T00:34:06.729Z,19.95
2022-10-18T00:36:36.102Z,19.57
2022-10-18T00:39:06.169Z,21.85
2022-10-18T00:41:36.125Z,21.28
2022-10-18T00:44:11.921Z,20.71
2022-10-18T00:46:42.486Z,21.85
2022-10-18T00:49:31.430Z,21.09
2022-10-18T00:52:08.156Z,21.09
2022-10-18T00:54:38.388Z,22.99
2022-10-18T00:57:06.400Z,23.94
2022-10-18T00:59:35.156Z,21.85
2022-10-18T01:02:02.551Z,21.47
2022-10-18T01:04:29.363Z,21.85
2022-10-18T01:07:16.946Z,21.66
2022-10-18T01:10:25.542Z,21.85
2022-10-18T01:13:53.259Z,19.95
2022-10-18T01:17:01.948Z,19.38
2022-10-18T01:19:58.295Z,19.00
2022-10-18T01:22:36.615Z,17.67
2022-10-18T01:25:36.442Z,16.91
2022-10-18T01:28:53.334Z,17.29
2022-10-18T01:31:40.126Z,17.67
2022-10-18T01:34:11.895Z,15.39
2022-10-18T01:36:44.094Z,14.06
2022-10-18T01:39:27.014Z,16.15
2022-10-18T01:41:57.713Z,15.39
2022-10-18T01:44:29.346Z,15.20
2022-10-18T01:46:58.206Z,15.39
2022-10-18T01:49:26.768Z,14.44
2022-10-18T01:51:55.064Z,14.44
2022-10-18T01:54:38.100Z,14.82
2022-10-18T01:57:39.571Z,14.25
2022-10-18T02:00:19.070Z,15.39
2022-10-18T02:02:55.171Z,14.25
2022-10-18T02:05:33.403Z,15.58
2022-10-18T02:08:24.146Z,16.53
2022-10-18T02:10:56.706Z,16.91
2022-10-18T02:13:30.487Z,16.91
2022-10-18T02:16:07.704Z,16.34
2022-10-18T02:18:41.623Z,15.20
2022-10-18T02:21:18.146Z,16.34
2022-10-18T02:23:47.015Z,14.82
2022-10-18T02:26:15.870Z,17.86
2022-10-18T02:28:43.302Z,16.34
2022-10-18T02:31:18.190Z,16.15
2022-10-18T02:34:02.705Z,15.58
2022-10-18T02:36:42.900Z,14.44
2022-10-18T02:39:17.862Z,16.34
2022-10-18T02:41:45.659Z,16.91
2022-10-18T02:44:15.258Z,14.25
2022-10-18T02:46:42.518Z,15.01
2022-10-18T02:49:09.179Z,15.39
2022-10-18T02:51:35.847Z,14.63
2022-10-18T02:54:02.558Z,14.44
2022-10-18T02:56:29.205Z,16.15
2022-10-18T02:58:56.241Z,15.96
2022-10-18T03:01:22.901Z,14.63
2022-10-18T03:03:50.043Z,15.01
2022-10-18T03:06:16.857Z,15.39
2022-10-18T03:08:43.486Z,15.77
2022-10-18T03:11:12.593Z,17.29
2022-10-18T03:13:39.238Z,15.58
2022-10-18T03:16:06.040Z,15.77
2022-10-18T03:18:32.660Z,17.10
2022-10-18T03:20:59.324Z,15.96
2022-10-18T03:23:26.314Z,15.01
2022-10-18T03:25:52.947Z,16.15
2022-10-18T03:28:19.526Z,17.29
2022-10-18T03:30:46.129Z,17.29
2022-10-18T03:33:12.993Z,16.91
2022-10-18T03:35:39.970Z,17.10
2022-10-18T03:38:06.972Z,16.91
2022-10-18T03:40:33.848Z,16.15
2022-10-18T03:43:00.671Z,15.39
2022-10-18T03:45:30.493Z,16.15
2022-10-18T03:47:58.130Z,15.77
2022-10-18T03:50:24.766Z,14.06
2022-10-18T03:52:51.400Z,15.96
2022-10-18T03:55:18.049Z,16.15
2022-10-18T03:57:44.644Z,15.20
2022-10-18T04:00:12.722Z,14.63
2022-10-18T04:02:40.044Z,14.82
2022-10-18T04:05:07.575Z,15.20
2022-10-18T04:10:07.923Z,14.44
2022-10-18T04:12:36.654Z,15.58
2022-10-18T04:15:03.913Z,15.20
2022-10-18T04:17:30.740Z,14.82
2022-10-18T04:19:57.546Z,15.58
2022-10-18T04:22:24.341Z,16.91
2022-10-18T04:24:53.086Z,15.58
2022-10-18T04:27:19.726Z,16.15
2022-10-18T04:29:46.321Z,15.20
2022-10-18T04:32:12.930Z,14.44
2022-10-18T04:34:39.574Z,13.87
2022-10-18T04:37:06.230Z,15.58
2022-10-18T04:39:32.837Z,15.96
2022-10-18T04:41:59.440Z,16.72
2022-10-18T04:44:26.020Z,15.01
2022-10-18T04:46:52.660Z,14.63
2022-10-18T04:49:19.347Z,15.20
2022-10-18T04:51:45.988Z,13.87
2022-10-18T04:54:12.653Z,15.20
2022-10-18T04:56:39.255Z,14.63
2022-10-18T04:59:05.890Z,12.92
2022-10-18T05:01:32.547Z,13.87
2022-10-18T05:03:59.211Z,13.30
2022-10-18T05:06:25.951Z,14.63
2022-10-18T05:08:52.617Z,13.11
2022-10-18T05:11:19.255Z,15.01
2022-10-18T05:13:48.543Z,13.87
2022-10-18T05:16:17.708Z,14.63
2022-10-18T05:18:44.376Z,14.25
2022-10-18T05:21:12.355Z,15.77
2022-10-18T05:23:39.705Z,14.25
2022-10-18T05:26:07.753Z,14.44
2022-10-18T05:28:40.061Z,13.87
2022-10-18T05:31:09.978Z,14.63
2022-10-18T05:33:36.727Z,12.92
2022-10-18T05:36:04.507Z,12.73
2022-10-18T05:38:31.494Z,14.63
2022-10-18T05:40:59.465Z,16.15
2022-10-18T05:43:29.291Z,16.15
2022-10-18T05:45:56.182Z,15.58
2022-10-18T05:48:22.905Z,15.96
2022-10-18T05:50:49.528Z,14.25
2022-10-18T05:53:35.645Z,14.63
2022-10-18T05:56:03.947Z,15.01
2022-10-18T05:58:30.615Z,14.25
2022-10-18T06:01:06.064Z,14.63
2022-10-18T06:03:33.508Z,13.49
2022-10-18T06:06:01.576Z,13.30
2022-10-18T06:08:28.477Z,13.68
2022-10-18T06:10:55.431Z,14.82
2022-10-18T06:13:22.497Z,13.68
2022-10-18T06:15:49.469Z,13.49
2022-10-18T06:18:16.454Z,13.49
2022-10-18T06:20:43.069Z,13.87
2022-10-18T06:23:09.751Z,12.92
2022-10-18T06:25:36.378Z,13.49
2022-10-18T06:28:07.813Z,13.87
2022-10-18T06:30:37.027Z,13.30
2022-10-18T06:33:03.701Z,14.25
2022-10-18T06:35:30.302Z,11.78
2022-10-18T06:37:57.567Z,12.16
2022-10-18T06:40:24.397Z,12.73
2022-10-18T06:43:00.316Z,12.92
2022-10-18T06:45:33.475Z,13.11
2022-10-18T06:48:00.160Z,12.73
2022-10-18T06:50:26.802Z,12.54
2022-10-18T06:52:53.515Z,12.35
2022-10-18T06:55:20.186Z,12.35
2022-10-18T06:57:47.156Z,11.78
2022-10-18T07:00:14.679Z,13.11
2022-10-18T07:02:41.373Z,14.06
2022-10-18T07:05:09.368Z,12.92
2022-10-18T07:07:36.208Z,13.68
2022-10-18T07:10:04.330Z,11.78
2022-10-18T07:12:32.311Z,11.59
2022-10-18T07:14:59.153Z,11.59
2022-10-18T07:17:27.288Z,10.83
2022-10-18T07:19:53.947Z,12.92
2022-10-18T07:22:20.607Z,11.21
2022-10-18T07:24:47.205Z,10.83
2022-10-18T07:27:13.811Z,11.59
2022-10-18T07:29:40.981Z,12.54
2022-10-18T07:32:07.611Z,12.54
2022-10-18T07:34:34.412Z,13.11
2022-10-18T07:37:02.393Z,14.63
2022-10-18T07:39:28.998Z,13.87
2022-10-18T07:41:55.637Z,12.35
2022-10-18T07:44:22.306Z,13.49
2022-10-18T07:46:48.962Z,12.35
2022-10-18T07:49:15.558Z,13.49
2022-10-18T07:51:42.737Z,12.92
2022-10-18T07:54:09.699Z,13.11
2022-10-18T07:56:36.296Z,11.97
2022-10-18T07:59:02.996Z,12.54
2022-10-18T08:01:29.743Z,12.16
2022-10-18T08:03:56.375Z,12.54
2022-10-18T08:06:23.792Z,11.21
2022-10-18T08:08:52.159Z,13.11
2022-10-18T08:11:25.341Z,12.73
2022-10-18T08:13:54.000Z,11.59
2022-10-18T08:16:25.137Z,11.21
2022-10-18T08:18:52.250Z,10.07
2022-10-18T08:21:21.252Z,9.69
2022-10-18T08:23:49.146Z,9.88
2022-10-18T08:26:20.305Z,8.55
2022-10-18T08:28:53.922Z,9.31
2022-10-18T08:31:25.780Z,9.69
2022-10-18T08:33:54.457Z,7.98
2022-10-18T08:36:21.190Z,7.79
2022-10-18T08:38:49.361Z,8.36
2022-10-18T08:41:37.016Z,7.79
2022-10-18T08:44:29.072Z,7.60
2022-10-18T08:47:04.404Z,7.98
2022-10-18T08:49:46.336Z,6.84
2022-10-18T08:53:00.078Z,8.36
2022-10-18T08:55:37.314Z,7.22
2022-10-18T08:58:19.292Z,7.22
2022-10-18T09:01:10.322Z,7.79
2022-10-18T09:04:51.467Z,7.03
2022-10-18T09:08:02.870Z,6.08
2022-10-18T09:10:50.175Z,4.75
2022-10-18T09:14:07.127Z,5.89
2022-10-18T09:16:49.079Z,5.89
2022-10-18T09:19:55.037Z,5.89
2022-10-18T09:22:55.558Z,5.51
2022-10-18T09:25:25.963Z,5.13
2022-10-18T09:28:20.039Z,4.75
2022-10-18T09:30:59.637Z,5.32
2022-10-18T09:34:03.831Z,4.75
2022-10-18T09:36:37.035Z,4.75
2022-10-18T09:39:14.529Z,5.51
2022-10-18T09:41:50.947Z,5.89
2022-10-18T09:44:55.831Z,5.32
2022-10-18T09:47:32.627Z,6.27
2022-10-18T09:50:24.083Z,5.89
2022-10-18T09:53:21.419Z,7.03
2022-10-18T09:56:06.487Z,6.84
2022-10-18T09:58:48.811Z,7.22
2022-10-18T10:01:25.478Z,7.98
2022-10-18T10:03:53.304Z,9.31
2022-10-18T10:06:32.370Z,7.79
2022-10-18T10:09:14.884Z,7.98
2022-10-18T10:11:48.365Z,7.79
2022-10-18T10:14:27.952Z,8.93
2022-10-18T10:17:02.427Z,7.98
2022-10-18T10:19:35.418Z,8.17
2022-10-18T10:22:14.431Z,7.79
2022-10-18T10:24:54.422Z,9.31
2022-10-18T10:27:45.400Z,8.55
2022-10-18T10:30:28.653Z,8.55
2022-10-18T10:32:56.852Z,8.55
2022-10-18T10:35:53.052Z,8.55
2022-10-18T10:38:30.102Z,7.98
2022-10-18T10:40:58.304Z,9.50
2022-10-18T10:43:39.404Z,10.26
2022-10-18T10:46:12.915Z,9.50
2022-10-18T10:48:42.106Z,10.07
2022-10-18T10:51:11.594Z,9.69
2022-10-18T10:53:59.881Z,9.88
2022-10-18T10:56:37.518Z,9.12
2022-10-18T10:59:17.502Z,10.26
2022-10-18T11:01:45.371Z,10.45
2022-10-18T11:04:30.958Z,17.29
2022-10-18T11:07:09.768Z,14.44
2022-10-18T11:09:44.121Z,18.24
2022-10-18T11:12:24.188Z,18.24
2022-10-18T11:15:35.974Z,13.30
2022-10-18T11:18:28.161Z,10.26
2022-10-18T11:21:21.568Z,9.31
2022-10-18T11:23:48.364Z,10.26
2022-10-18T11:26:36.044Z,9.88
2022-10-18T11:29:54.372Z,10.64
2022-10-18T11:32:43.538Z,10.83
2022-10-18T11:35:43.332Z,10.07
2022-10-18T11:38:28.507Z,11.78
2022-10-18T11:41:28.204Z,10.64
2022-10-18T11:44:03.499Z,11.40
2022-10-18T11:46:48.682Z,11.02
2022-10-18T11:49:48.616Z,11.78
2022-10-18T11:52:46.007Z,10.64
2022-10-18T11:55:49.809Z,11.02
2022-10-18T11:58:43.526Z,11.21
2022-10-18T12:01:28.631Z,11.02
2022-10-18T12:04:10.431Z,11.78
2022-10-18T12:06:41.615Z,10.83
2022-10-18T12:09:26.349Z,10.64
2022-10-18T12:12:11.271Z,10.64
2022-10-18T12:14:49.451Z,10.45
2022-10-18T12:17:46.344Z,10.45
2022-10-18T12:20:27.726Z,9.12
2022-10-18T12:23:17.533Z,10.83
2022-10-18T12:25:51.309Z,9.50
2022-10-18T12:28:32.979Z,9.12
2022-10-18T12:31:33.800Z,9.88
2022-10-18T12:34:23.390Z,9.31
2022-10-18T12:37:21.670Z,8.55
2022-10-18T12:40:09.742Z,8.55
2022-10-18T12:42:47.706Z,7.98
2022-10-18T12:45:32.206Z,9.12
2022-10-18T12:48:06.800Z,9.69
2022-10-18T12:50:43.410Z,8.74
2022-10-18T12:53:09.936Z,8.74
2022-10-18T12:55:40.654Z,8.93
2022-10-18T12:58:30.339Z,10.45
2022-10-18T13:01:05.060Z,10.64
2022-10-18T13:03:54.983Z,11.40
2022-10-18T13:06:23.564Z,10.45
2022-10-18T13:09:17.972Z,11.40
2022-10-18T13:11:45.031Z,10.64
2022-10-18T13:14:48.283Z,9.69
2022-10-18T13:17:57.256Z,8.74
2022-10-18T13:20:52.537Z,8.55
2022-10-18T13:23:59.793Z,11.21
2022-10-18T13:27:18.059Z,9.50
2022-10-18T13:30:15.779Z,9.12
2022-10-18T13:33:27.898Z,9.31
2022-10-18T13:35:59.672Z,9.69
2022-10-18T13:38:47.215Z,10.64
2022-10-18T13:41:20.666Z,10.45
2022-10-18T13:43:53.263Z,11.40
2022-10-18T13:46:25.372Z,11.78
2022-10-18T13:49:37.605Z,10.64
2022-10-18T13:52:33.389Z,11.97
2022-10-18T13:55:37.830Z,11.21
2022-10-18T13:58:34.323Z,13.11
2022-10-18T14:01:19.108Z,11.97
2022-10-18T14:04:48.760Z,12.92
2022-10-18T14:07:18.719Z,12.54
2022-10-18T14:09:56.078Z,13.30
2022-10-18T14:12:45.939Z,12.16
2022-10-18T14:15:27.298Z,11.59
2022-10-18T14:18:21.967Z,12.92
2022-10-18T14:21:12.790Z,11.59
2022-10-18T14:23:45.059Z,10.26
2022-10-18T14:26:20.845Z,10.07
2022-10-18T14:29:04.921Z,9.88
2022-10-18T14:31:32.710Z,9.31
2022-10-18T14:34:00.908Z,8.55
2022-10-18T14:36:39.530Z,10.07
2022-10-18T14:43:31.485Z,10.07
2022-10-18T14:46:29.038Z,9.31
2022-10-18T14:49:21.370Z,10.45
2022-10-18T14:52:17.204Z,12.35
2022-10-18T14:55:06.726Z,11.02
2022-10-18T14:57:55.247Z,8.74
2022-10-18T15:01:03.159Z,10.83
2022-10-18T15:04:01.182Z,11.21
2022-10-18T15:06:50.086Z,11.78
2022-10-18T15:09:38.433Z,11.40
2022-10-18T15:26:06.978Z,11.97
2022-10-18T15:29:00.493Z,12.16
2022-10-18T15:31:52.663Z,11.59
2022-10-18T15:34:41.125Z,11.59
2022-10-18T15:37:38.523Z,13.11
2022-10-18T15:40:35.807Z,12.73
2022-10-18T15:43:24.190Z,12.73
2022-10-18T15:46:31.569Z,15.20
2022-10-18T15:49:47.489Z,13.11
2022-10-18T15:52:42.243Z,13.68
2022-10-18T15:55:29.760Z,14.25
2022-10-18T15:58:46.802Z,13.68
2022-10-18T16:01:34.958Z,12.16
2022-10-18T16:04:31.776Z,14.06
2022-10-18T16:07:17.076Z,13.87
2022-10-18T16:10:14.280Z,12.92
2022-10-18T16:13:01.971Z,13.87
2022-10-18T16:15:50.975Z,15.20
2022-10-18T16:18:39.363Z,14.44
2022-10-18T16:21:36.597Z,13.87
2022-10-18T16:24:24.947Z,15.01
2022-10-18T16:27:13.114Z,16.91
2022-10-18T16:30:01.419Z,15.01
2022-10-18T16:32:49.658Z,15.58
2022-10-18T16:35:38.030Z,16.72
2022-10-18T16:38:37.306Z,15.77
2022-10-18T16:41:25.553Z,15.58
2022-10-18T16:44:15.324Z,14.25
2022-10-18T16:47:03.703Z,14.63
2022-10-18T16:49:51.877Z,15.20
2022-10-18T16:52:40.031Z,14.44
2022-10-18T16:55:28.209Z,15.39
2022-10-18T16:58:18.039Z,13.87
2022-10-18T17:01:08.879Z,14.63
2022-10-18T17:03:57.417Z,15.01
2022-10-18T17:06:47.486Z,15.01
2022-10-18T17:09:36.967Z,14.63
2022-10-18T17:12:25.479Z,14.63
2022-10-18T17:15:13.705Z,15.01
2022-10-18T17:18:03.835Z,13.49
2022-10-18T17:20:51.438Z,14.25
2022-10-18T17:23:39.878Z,14.82
2022-10-18T17:26:30.185Z,15.39
2022-10-18T17:29:18.060Z,13.68
2022-10-18T17:32:07.667Z,15.01
2022-10-18T17:34:55.370Z,14.63
2022-10-18T17:37:49.158Z,14.63
2022-10-18T17:40:42.672Z,13.49
2022-10-18T17:43:30.542Z,16.15
2022-10-18T17:46:19.562Z,15.20
2022-10-18T17:49:08.073Z,15.01
2022-10-18T17:51:56.253Z,15.01
2022-10-18T17:54:44.491Z,14.63
2022-10-18T17:57:33.055Z,17.29
2022-10-18T18:00:24.473Z,15.58
2022-10-18T18:03:13.668Z,14.82
2022-10-18T18:06:22.539Z,15.39
2022-10-18T18:09:14.518Z,14.63
2022-10-18T18:12:02.578Z,13.68
2022-10-18T18:14:51.037Z,14.63
2022-10-18T18:17:56.092Z,13.87
2022-10-18T18:20:54.599Z,14.06
2022-10-18T18:23:44.445Z,14.44
2022-10-18T18:26:34.592Z,14.06
2022-10-18T18:29:25.466Z,12.54
2022-10-18T18:32:13.386Z,11.97
2022-10-18T18:35:02.263Z,12.16
2022-10-18T18:37:51.269Z,12.73
2022-10-18T18:40:38.937Z,10.83
2022-10-18T18:43:27.359Z,9.31
2022-10-18T18:46:15.669Z,9.12
2022-10-18T18:49:06.868Z,8.93
2022-10-18T18:51:54.758Z,8.17
2022-10-18T18:54:42.949Z,9.12
2022-10-18T18:57:31.403Z,10.07
2022-10-18T19:00:20.060Z,10.26
2022-10-18T19:03:09.649Z,11.97
2022-10-18T19:06:11.065Z,12.35
2022-10-18T19:09:02.983Z,15.20
2022-10-18T19:11:53.740Z,19.00
2022-10-18T19:14:42.169Z,16.72
2022-10-18T19:17:30.587Z,20.90
2022-10-18T19:20:19.224Z,23.94
2022-10-18T19:23:07.574Z,23.56
2022-10-18T19:26:12.467Z,21.28
2022-10-18T19:29:11.351Z,20.52
2022-10-18T19:32:03.490Z,21.47
2022-10-18T19:34:52.895Z,21.66
2022-10-18T19:37:41.083Z,20.52
2022-10-18T19:40:29.231Z,18.62
2022-10-18T19:43:17.407Z,18.05
2022-10-18T19:46:06.002Z,18.43
2022-10-18T19:48:54.459Z,17.67
2022-10-18T19:51:43.472Z,18.05
2022-10-18T19:54:32.202Z,17.86
2022-10-18T19:57:20.417Z,16.72
2022-10-18T20:00:10.830Z,16.34
2022-10-18T20:02:59.784Z,15.96
2022-10-18T20:05:56.470Z,15.96
2022-10-18T20:08:44.590Z,15.58
2022-10-18T20:11:33.696Z,17.10
2022-10-18T20:14:22.000Z,15.58
2022-10-18T20:17:12.907Z,16.34
2022-10-18T20:20:01.061Z,15.20
2022-10-18T20:22:49.689Z,17.67
2022-10-18T20:25:38.112Z,15.96
2022-10-18T20:28:27.023Z,16.91
2022-10-18T20:31:19.723Z,16.91
2022-10-18T20:34:11.883Z,16.53
2022-10-18T20:37:00.177Z,15.20
2022-10-18T20:39:48.762Z,15.96
2022-10-18T20:42:36.516Z,15.20
2022-10-18T20:45:24.852Z,15.01
2022-10-18T20:48:13.181Z,15.58
2022-10-18T20:51:09.384Z,17.86
2022-10-18T20:53:57.167Z,16.15
2022-10-18T20:56:45.571Z,16.15
2022-10-18T20:59:33.697Z,16.34
2022-10-18T21:02:21.988Z,16.72
2022-10-18T21:05:10.312Z,17.48
2022-10-18T21:07:59.523Z,16.91
2022-10-18T21:10:47.760Z,15.77
2022-10-18T21:13:36.586Z,16.53
2022-10-18T21:16:26.079Z,15.77
2022-10-18T21:19:21.678Z,16.72
2022-10-18T21:22:09.872Z,15.96
2022-10-18T21:24:58.102Z,16.15
2022-10-18T21:27:46.309Z,15.96
2022-10-18T21:30:34.592Z,14.44
2022-10-18T21:33:22.858Z,15.20
2022-10-18T21:36:12.815Z,15.20
2022-10-18T21:39:02.793Z,14.44
2022-10-18T21:41:51.903Z,15.20
2022-10-18T21:44:40.152Z,12.92
2022-10-18T21:47:28.409Z,13.11
2022-10-18T21:50:16.693Z,13.11
2022-10-18T21:53:05.028Z,11.78
2022-10-18T21:55:53.343Z,12.92
2022-10-18T21:58:45.632Z,10.83
2022-10-18T22:01:38.207Z,12.35
2022-10-18T22:04:25.878Z,11.40
2022-10-18T22:07:14.248Z,12.92
2022-10-18T22:10:02.502Z,12.16
2022-10-18T22:12:50.718Z,11.97
2022-10-18T22:15:38.961Z,12.35
2022-10-18T22:18:27.238Z,10.64
2022-10-18T22:21:18.784Z,10.64
2022-10-18T22:24:10.034Z,10.83
2022-10-18T22:26:58.281Z,11.02
2022-10-18T22:31:21.391Z,10.45
2022-10-18T22:34:18.685Z,11.02
2022-10-18T22:37:06.899Z,11.97
2022-10-18T22:39:55.125Z,9.88
2022-10-18T22:42:43.362Z,11.59
2022-10-18T22:45:31.708Z,11.40
2022-10-18T22:48:20.057Z,10.26
2022-10-18T22:51:09.425Z,11.78
2022-10-18T22:53:57.901Z,10.26
2022-10-18T22:56:46.295Z,11.21
2022-10-18T22:59:34.583Z,10.83
2022-10-18T23:02:22.905Z,9.50
2022-10-18T23:05:11.124Z,9.69
2022-10-18T23:07:59.506Z,9.12
2022-10-18T23:10:48.155Z,9.50
2022-10-18T23:13:38.829Z,8.93
2022-10-18T23:16:29.487Z,9.50
2022-10-18T23:19:17.403Z,9.31
2022-10-18T23:22:05.750Z,9.31
2022-10-18T23:24:54.051Z,9.50
2022-10-18T23:30:32.462Z,9.12
2022-10-18T23:33:21.219Z,10.07
2022-10-18T23:36:09.657Z,9.31
2022-10-18T23:38:58.551Z,8.74
2022-10-18T23:41:46.697Z,9.88
2022-10-18T23:44:34.789Z,9.88
2022-10-18T23:47:23.084Z,7.60
2022-10-18T23:50:11.256Z,8.36
2022-10-18T23:52:59.579Z,8.93
2022-10-18T23:56:11.669Z,7.79
2022-10-18T23:58:59.369Z,10.64
